Time;durP1;ratioP1;P1;durP2;ratioP2;P2;SDS_P1;SDS_P2;PMS_P1;PMS_P2;Temp;Humidity;BMP_temperature;BMP_pressure;BME280_temperature;BME280_humidity;BME280_pressure;Samples;Min_cycle;Max_cycle;Signal;HPM_P1;HPM_P2
2023/11/28 00:01:52;;;;;;;27.02;10.32;;;0.00;99.90;;;;;;5025596;28;20048;-71
2023/11/28 00:04:18;;;;;;;28.75;10.27;;;0.00;99.90;;;;;;5018061;28;20036;-71
2023/11/28 00:06:43;;;;;;;34.63;12.30;;;0.00;99.90;;;;;;5036439;28;20021;-69
2023/11/28 00:09:10;;;;;;;27.10;9.23;;;0.00;99.90;;;;;;5035532;28;20026;-69
2023/11/28 00:11:36;;;;;;;32.13;11.95;;;0.00;99.90;;;;;;5036069;28;20392;-69
2023/11/28 00:14:02;;;;;;;33.42;13.65;;;0.00;99.90;;;;;;5034313;28;20048;-69
2023/11/28 00:16:27;;;;;;;30.02;12.38;;;0.00;99.90;;;;;;5017484;28;20528;-69
2023/11/28 00:18:53;;;;;;;24.42;10.52;;;0.00;99.90;;;;;;5019060;28;20033;-69
2023/11/28 00:21:18;;;;;;;32.03;12.23;;;0.00;99.90;;;;;;5035710;28;20358;-69
2023/11/28 00:23:44;;;;;;;33.10;16.95;;;0.00;99.90;;;;;;5036399;28;20040;-69
2023/11/28 00:26:10;;;;;;;23.35;7.82;;;0.00;99.90;;;;;;5018187;28;20029;-69
2023/11/28 00:28:35;;;;;;;34.90;15.65;;;0.00;99.90;;;;;;5038990;28;20021;-69
2023/11/28 00:31:01;;;;;;;30.80;12.30;;;0.00;99.90;;;;;;5019575;28;20063;-71
2023/11/28 00:33:26;;;;;;;32.92;14.90;;;0.00;99.90;;;;;;5038766;28;20034;-71
2023/11/28 00:35:52;;;;;;;31.48;12.63;;;0.00;99.90;;;;;;5044716;28;20502;-73
2023/11/28 00:38:18;;;;;;;35.83;14.32;;;0.00;99.90;;;;;;5039517;28;20044;-73
2023/11/28 00:40:44;;;;;;;35.80;15.55;;;0.00;99.90;;;;;;5022498;28;20021;-73
2023/11/28 00:43:10;;;;;;;35.13;14.07;;;-0.10;99.90;;;;;;5039299;28;20412;-73
2023/11/28 00:45:35;;;;;;;38.92;16.88;;;0.00;99.90;;;;;;5040071;28;20032;-73
2023/11/28 00:48:01;;;;;;;19.42;8.38;;;0.00;99.90;;;;;;5021531;28;20029;-73
2023/11/28 00:50:26;;;;;;;28.23;12.40;;;-0.10;99.90;;;;;;5039957;28;20118;-73
2023/11/28 00:52:52;;;;;;;32.80;12.15;;;0.00;99.90;;;;;;5039147;28;20026;-73
2023/11/28 00:55:18;;;;;;;34.28;13.43;;;-0.10;99.90;;;;;;5040547;28;20032;-73
2023/11/28 00:57:46;;;;;;;32.05;12.38;;;-0.10;99.90;;;;;;5019925;28;20036;-73
2023/11/28 01:00:13;;;;;;;36.80;15.27;;;-0.10;99.90;;;;;;5017831;28;20397;-73
2023/11/28 01:02:42;;;;;;;31.75;12.77;;;-0.10;99.90;;;;;;5037031;28;20034;-74
2023/11/28 01:05:13;;;;;;;28.15;12.23;;;-0.10;99.90;;;;;;5039589;28;20659;-74
2023/11/28 01:07:38;;;;;;;32.45;14.65;;;-0.10;99.90;;;;;;5020273;28;20029;-74
2023/11/28 01:10:05;;;;;;;27.65;10.75;;;0.00;99.90;;;;;;5040449;28;20357;-71
2023/11/28 01:12:30;;;;;;;24.55;11.23;;;-0.10;99.90;;;;;;5037309;28;20044;-71
2023/11/28 01:14:56;;;;;;;26.50;11.23;;;-0.10;99.90;;;;;;5039871;28;20045;-71
2023/11/28 01:17:22;;;;;;;24.02;10.68;;;-0.10;99.90;;;;;;5038420;28;20400;-71
2023/11/28 01:19:48;;;;;;;19.25;7.32;;;-0.10;99.90;;;;;;5037994;28;20033;-71
2023/11/28 01:22:13;;;;;;;25.23;9.57;;;-0.10;99.90;;;;;;5020520;28;20022;-71
2023/11/28 01:24:40;;;;;;;24.02;11.80;;;0.00;99.90;;;;;;5022953;28;20064;-71
2023/11/28 01:27:05;;;;;;;25.63;10.60;;;0.00;99.90;;;;;;5040495;28;20074;-71
2023/11/28 01:29:33;;;;;;;23.17;10.75;;;-0.10;99.90;;;;;;5037263;28;20029;-71
2023/11/28 01:31:58;;;;;;;23.55;9.95;;;-0.10;99.90;;;;;;5037630;28;20033;-71
2023/11/28 01:34:24;;;;;;;19.75;8.02;;;0.00;99.90;;;;;;5025989;28;20025;-71
2023/11/28 01:36:51;;;;;;;18.05;7.15;;;0.00;99.90;;;;;;5036508;28;20021;-73
2023/11/28 01:39:18;;;;;;;20.17;9.65;;;0.00;99.90;;;;;;5039098;28;20582;-73
2023/11/28 01:41:48;;;;;;;22.67;12.70;;;-0.10;99.90;;;;;;5036958;28;20409;-71
2023/11/28 01:44:14;;;;;;;22.00;9.80;;;-0.10;99.90;;;;;;5033002;28;20028;-71
2023/11/28 01:46:43;;;;;;;22.00;10.98;;;-0.10;99.90;;;;;;5039914;28;20033;-71
2023/11/28 01:49:10;;;;;;;26.02;14.32;;;-0.10;99.90;;;;;;5038102;28;20482;-71
2023/11/28 01:51:36;;;;;;;25.33;10.77;;;-0.10;99.90;;;;;;5039432;28;20404;-71
2023/11/28 01:54:04;;;;;;;26.17;12.30;;;0.00;99.90;;;;;;5019889;28;20021;-71
2023/11/28 01:56:31;;;;;;;24.90;11.05;;;-0.10;99.90;;;;;;5021225;28;20488;-71
2023/11/28 01:58:59;;;;;;;25.95;11.98;;;-0.10;99.90;;;;;;5037620;28;20523;-71
2023/11/28 02:01:27;;;;;;;25.95;9.75;;;-0.10;99.90;;;;;;5017474;28;20056;-71
2023/11/28 02:03:53;;;;;;;28.23;12.23;;;-0.10;99.90;;;;;;5038127;28;20097;-71
2023/11/28 02:06:19;;;;;;;30.75;13.82;;;-0.10;99.90;;;;;;5020622;28;20135;-71
2023/11/28 02:08:45;;;;;;;23.88;11.75;;;-0.10;99.90;;;;;;5037938;28;20052;-71
2023/11/28 02:11:11;;;;;;;28.58;15.07;;;-0.10;99.90;;;;;;5038412;28;20070;-71
2023/11/28 02:13:37;;;;;;;28.88;14.90;;;-0.10;99.90;;;;;;5029152;28;20068;-71
2023/11/28 02:16:13;;;;;;;24.63;10.88;;;-0.10;99.90;;;;;;5036700;28;20028;-71
2023/11/28 02:18:40;;;;;;;27.70;13.40;;;-0.10;99.90;;;;;;5039842;28;20036;-71
2023/11/28 02:21:06;;;;;;;26.38;11.57;;;-0.10;99.90;;;;;;5036505;28;20124;-71
2023/11/28 02:23:33;;;;;;;25.95;11.82;;;-0.10;99.90;;;;;;5039082;28;20027;-71
2023/11/28 02:26:05;;;;;;;27.95;14.23;;;-0.10;99.90;;;;;;5039989;28;20485;-71
2023/11/28 02:28:31;;;;;;;24.02;10.98;;;-0.10;99.90;;;;;;5033670;28;20044;-71
2023/11/28 02:31:01;;;;;;;22.88;10.10;;;0.00;99.90;;;;;;5031078;28;20028;-71
2023/11/28 02:33:27;;;;;;;24.38;13.10;;;-0.10;99.90;;;;;;5036505;28;20043;-71
2023/11/28 02:35:52;;;;;;;21.13;12.02;;;0.00;99.90;;;;;;5034936;28;20030;-71
2023/11/28 02:38:18;;;;;;;24.98;13.02;;;-0.10;99.90;;;;;;5038447;28;20037;-71
2023/11/28 02:40:44;;;;;;;25.92;14.98;;;-0.10;99.90;;;;;;5035066;28;20022;-71
2023/11/28 02:43:09;;;;;;;26.73;15.32;;;-0.10;99.90;;;;;;5040366;28;20021;-71
2023/11/28 02:45:35;;;;;;;23.35;11.70;;;-0.10;99.90;;;;;;5036600;28;20082;-71
2023/11/28 02:48:01;;;;;;;24.90;12.25;;;-0.10;99.90;;;;;;5037713;28;20060;-71
2023/11/28 02:50:27;;;;;;;24.02;12.15;;;-0.10;99.90;;;;;;5038551;28;20044;-71
2023/11/28 02:52:53;;;;;;;22.15;10.98;;;-0.10;99.90;;;;;;5036310;28;20017;-71
2023/11/28 02:55:18;;;;;;;28.27;10.85;;;-0.10;99.90;;;;;;5037778;28;20028;-68
2023/11/28 02:57:44;;;;;;;22.80;11.10;;;-0.10;99.90;;;;;;5036457;28;20029;-68
2023/11/28 03:00:11;;;;;;;21.75;11.15;;;-0.10;99.90;;;;;;5032922;28;20042;-68
2023/11/28 03:02:36;;;;;;;21.35;11.45;;;-0.10;99.90;;;;;;5036159;28;20029;-68
2023/11/28 03:05:03;;;;;;;25.25;13.05;;;-0.10;99.90;;;;;;5036355;28;20653;-68
2023/11/28 03:07:31;;;;;;;21.20;9.55;;;-0.10;99.90;;;;;;5037350;28;20025;-69
2023/11/28 03:09:57;;;;;;;24.58;12.82;;;-0.10;99.90;;;;;;5037194;28;20496;-69
2023/11/28 03:12:25;;;;;;;20.15;9.30;;;-0.10;99.90;;;;;;5036704;28;20026;-69
2023/11/28 03:14:51;;;;;;;24.08;12.32;;;-0.10;99.90;;;;;;5019215;28;20040;-69
2023/11/28 03:17:17;;;;;;;20.75;11.32;;;-0.10;99.90;;;;;;5038064;28;20112;-69
2023/11/28 03:19:43;;;;;;;23.25;10.40;;;-0.10;99.90;;;;;;5013958;28;20030;-69
2023/11/28 03:22:08;;;;;;;20.67;11.55;;;-0.10;99.90;;;;;;5033679;28;20775;-69
2023/11/28 03:24:34;;;;;;;16.90;8.48;;;-0.10;99.90;;;;;;5037579;28;20389;-69
2023/11/28 03:26:59;;;;;;;19.98;9.30;;;-0.10;99.90;;;;;;5036741;28;20035;-69
2023/11/28 03:29:25;;;;;;;22.30;11.75;;;0.00;99.90;;;;;;5032729;28;20540;-69
2023/11/28 03:31:51;;;;;;;22.13;10.93;;;0.00;99.90;;;;;;5033201;28;20108;-69
2023/11/28 03:34:17;;;;;;;20.63;11.15;;;-0.10;99.90;;;;;;5041793;28;20029;-71
2023/11/28 03:36:43;;;;;;;16.77;7.55;;;-0.10;99.90;;;;;;5036662;28;20079;-71
2023/11/28 03:39:10;;;;;;;21.48;12.00;;;-0.10;99.90;;;;;;5038403;28;20022;-71
2023/11/28 03:41:35;;;;;;;19.10;8.77;;;-0.10;99.90;;;;;;5017903;28;20029;-71
2023/11/28 03:44:01;;;;;;;19.88;9.38;;;-0.10;99.90;;;;;;5020462;28;20028;-72
2023/11/28 03:46:27;;;;;;;21.05;11.20;;;-0.10;99.90;;;;;;5036279;28;20484;-72
2023/11/28 03:48:53;;;;;;;16.27;9.25;;;-0.10;99.90;;;;;;5037054;28;20121;-72
2023/11/28 03:51:18;;;;;;;19.08;9.45;;;-0.10;99.90;;;;;;5036083;28;20040;-72
2023/11/28 03:53:44;;;;;;;18.52;10.35;;;-0.10;99.90;;;;;;5036800;28;20029;-71
2023/11/28 03:56:14;;;;;;;17.58;9.40;;;-0.10;99.90;;;;;;5037273;28;20112;-71
2023/11/28 03:58:39;;;;;;;20.33;10.65;;;-0.10;99.90;;;;;;5034460;28;20398;-71
2023/11/28 04:01:05;;;;;;;18.52;10.50;;;-0.10;99.90;;;;;;5035120;28;20091;-71
2023/11/28 04:03:32;;;;;;;18.10;9.13;;;-0.20;99.90;;;;;;5038212;28;20025;-69
2023/11/28 04:05:58;;;;;;;20.80;10.90;;;-0.20;99.90;;;;;;5023444;28;20033;-69
2023/11/28 04:08:24;;;;;;;20.67;11.48;;;-0.10;99.90;;;;;;5039786;28;20325;-69
2023/11/28 04:10:50;;;;;;;22.48;13.98;;;-0.10;99.90;;;;;;5041907;28;20024;-69
2023/11/28 04:13:15;;;;;;;18.65;9.73;;;-0.20;99.90;;;;;;5027304;28;20034;-69
2023/11/28 04:15:41;;;;;;;20.77;13.00;;;-0.10;99.90;;;;;;5040223;28;20728;-69
2023/11/28 04:18:11;;;;;;;19.73;10.13;;;-0.10;99.90;;;;;;5039545;28;20033;-70
2023/11/28 04:20:40;;;;;;;20.38;9.55;;;-0.10;99.90;;;;;;5042137;28;20033;-70
2023/11/28 04:23:08;;;;;;;23.20;14.75;;;-0.10;99.90;;;;;;5035794;28;20453;-70
2023/11/28 04:25:34;;;;;;;19.63;10.27;;;-0.10;99.90;;;;;;5040606;28;20029;-70
2023/11/28 04:27:59;;;;;;;21.25;9.50;;;-0.10;99.90;;;;;;5039551;28;20022;-70
2023/11/28 04:30:25;;;;;;;16.58;8.77;;;-0.10;99.90;;;;;;5038200;28;20026;-70
2023/11/28 04:32:51;;;;;;;20.27;8.52;;;-0.10;99.90;;;;;;5041022;28;20068;-70
2023/11/28 04:35:16;;;;;;;23.48;12.18;;;-0.10;99.90;;;;;;5042540;28;20024;-70
2023/11/28 04:37:42;;;;;;;26.67;12.80;;;-0.10;99.90;;;;;;5038949;28;20033;-71
2023/11/28 04:40:08;;;;;;;36.42;11.38;;;-0.10;99.90;;;;;;5040577;28;20220;-71
2023/11/28 04:42:34;;;;;;;27.60;12.45;;;-0.10;99.90;;;;;;5038731;28;20408;-70
2023/11/28 04:44:59;;;;;;;27.98;15.30;;;-0.10;99.90;;;;;;5042117;28;20365;-70
2023/11/28 04:47:25;;;;;;;19.52;9.20;;;-0.20;99.90;;;;;;5039427;28;20332;-70
2023/11/28 04:49:51;;;;;;;28.52;12.27;;;-0.10;99.90;;;;;;5042719;28;20024;-70
2023/11/28 04:52:20;;;;;;;21.27;11.38;;;-0.10;99.90;;;;;;5040674;28;20041;-70
2023/11/28 04:54:45;;;;;;;22.67;11.65;;;-0.10;99.90;;;;;;5042116;28;20238;-70
2023/11/28 04:57:11;;;;;;;25.95;11.88;;;-0.10;99.90;;;;;;5038329;28;20112;-70
2023/11/28 04:59:36;;;;;;;25.80;13.60;;;-0.10;99.90;;;;;;5032092;28;20893;-72
2023/11/28 05:02:03;;;;;;;30.60;15.55;;;-0.20;99.90;;;;;;5041513;28;20033;-70
2023/11/28 05:04:28;;;;;;;31.17;13.90;;;-0.20;99.90;;;;;;5037926;28;20031;-70
2023/11/28 05:06:54;;;;;;;29.17;14.85;;;-0.10;99.90;;;;;;5040547;28;20025;-71
2023/11/28 05:09:20;;;;;;;29.55;13.98;;;-0.20;99.90;;;;;;5037277;28;20079;-71
2023/11/28 05:11:46;;;;;;;25.40;12.35;;;-0.20;99.90;;;;;;5036703;28;20026;-71
2023/11/28 05:14:12;;;;;;;26.50;13.57;;;-0.10;99.90;;;;;;5035879;28;20452;-71
2023/11/28 05:16:38;;;;;;;24.65;13.52;;;-0.20;99.90;;;;;;5017851;28;20021;-71
2023/11/28 05:19:05;;;;;;;25.08;12.75;;;-0.20;99.90;;;;;;5018789;28;20032;-71
2023/11/28 05:21:31;;;;;;;25.48;10.48;;;-0.10;99.90;;;;;;5012807;28;20029;-71
2023/11/28 05:24:04;;;;;;;24.67;11.45;;;-0.20;99.90;;;;;;5034521;28;20186;-72
2023/11/28 05:26:29;;;;;;;32.15;10.55;;;-0.20;99.90;;;;;;5022685;28;20366;-71
2023/11/28 05:28:55;;;;;;;20.40;8.23;;;-0.20;99.90;;;;;;5032785;28;20435;-71
2023/11/28 05:31:21;;;;;;;23.83;10.48;;;-0.20;99.90;;;;;;5034659;28;20064;-71
2023/11/28 05:33:49;;;;;;;27.30;12.63;;;-0.20;99.90;;;;;;5018649;28;20301;-71
2023/11/28 05:36:15;;;;;;;26.85;14.57;;;-0.10;99.90;;;;;;5015080;28;20427;-71
2023/11/28 05:38:40;;;;;;;25.77;12.25;;;-0.20;99.90;;;;;;5038664;28;20029;-71
2023/11/28 05:41:08;;;;;;;20.83;9.52;;;-0.20;99.90;;;;;;5022892;28;20124;-72
2023/11/28 05:43:33;;;;;;;28.63;12.73;;;-0.20;99.90;;;;;;5033969;28;20029;-72
2023/11/28 05:45:59;;;;;;;29.75;13.20;;;-0.20;99.90;;;;;;5016408;28;20542;-72
2023/11/28 05:48:25;;;;;;;27.77;12.23;;;-0.20;99.90;;;;;;5037088;28;20037;-72
2023/11/28 05:50:51;;;;;;;27.00;12.15;;;-0.20;99.90;;;;;;5035161;28;20100;-72
2023/11/28 05:53:19;;;;;;;27.20;12.30;;;-0.20;99.90;;;;;;5037406;28;20476;-72
2023/11/28 05:55:45;;;;;;;24.48;10.45;;;-0.20;99.90;;;;;;5036588;28;20219;-72
2023/11/28 05:58:11;;;;;;;24.52;10.98;;;-0.20;99.90;;;;;;5034813;28;20481;-72
2023/11/28 06:00:37;;;;;;;23.35;13.88;;;-0.20;99.90;;;;;;5032350;28;20104;-72
2023/11/28 06:03:05;;;;;;;23.55;11.35;;;-0.20;99.90;;;;;;5033912;28;20115;-72
2023/11/28 06:05:31;;;;;;;24.85;10.32;;;-0.20;99.90;;;;;;5039026;28;20028;-72
2023/11/28 06:07:59;;;;;;;26.35;11.18;;;-0.20;99.90;;;;;;5035417;28;20078;-72
2023/11/28 06:10:26;;;;;;;23.90;11.00;;;-0.20;99.90;;;;;;5013871;28;20018;-72
2023/11/28 06:12:53;;;;;;;23.70;10.75;;;-0.30;99.90;;;;;;5013731;28;20452;-72
2023/11/28 06:15:19;;;;;;;22.63;9.82;;;-0.30;99.90;;;;;;5037498;28;20013;-71
2023/11/28 06:17:44;;;;;;;20.83;11.32;;;-0.30;99.90;;;;;;5026573;28;20508;-71
2023/11/28 06:20:10;;;;;;;22.02;9.10;;;-0.30;99.90;;;;;;5033121;28;20038;-71
2023/11/28 06:22:36;;;;;;;19.98;10.18;;;-0.30;99.90;;;;;;5032156;28;20029;-71
2023/11/28 06:25:04;;;;;;;17.75;8.02;;;-0.30;99.90;;;;;;5037996;28;20032;-71
2023/11/28 06:27:30;;;;;;;19.02;7.65;;;-0.40;99.90;;;;;;5030657;28;20021;-71
2023/11/28 06:29:55;;;;;;;21.45;9.30;;;-0.40;99.90;;;;;;5034429;28;20027;-72
2023/11/28 06:32:21;;;;;;;20.63;9.73;;;-0.30;99.90;;;;;;5030300;28;20026;-72
2023/11/28 06:34:47;;;;;;;20.35;9.60;;;-0.30;99.90;;;;;;5030806;28;20281;-72
2023/11/28 06:37:13;;;;;;;21.17;11.52;;;-0.30;99.90;;;;;;5034338;28;20032;-71
2023/11/28 06:39:39;;;;;;;20.42;10.05;;;-0.30;99.90;;;;;;5030150;28;20017;-71
2023/11/28 06:42:06;;;;;;;20.40;8.57;;;-0.40;99.90;;;;;;5034402;28;20442;-71
2023/11/28 06:44:33;;;;;;;18.60;7.18;;;-0.40;99.90;;;;;;5024741;28;20381;-71
2023/11/28 06:46:59;;;;;;;18.70;8.60;;;-0.40;99.90;;;;;;5035398;28;20376;-72
2023/11/28 06:49:25;;;;;;;20.50;9.32;;;-0.40;99.90;;;;;;5032738;28;20026;-72
2023/11/28 06:51:50;;;;;;;20.95;9.05;;;-0.40;99.90;;;;;;5032660;28;20035;-72
2023/11/28 06:54:17;;;;;;;21.10;10.10;;;-0.40;99.90;;;;;;5031239;28;20056;-71
2023/11/28 06:56:42;;;;;;;18.02;8.95;;;-0.40;99.90;;;;;;5035079;28;20028;-71
2023/11/28 06:59:11;;;;;;;17.60;7.88;;;-0.40;99.90;;;;;;5028735;28;20024;-71
2023/11/28 07:01:40;;;;;;;15.32;7.13;;;-0.50;99.90;;;;;;5029376;28;20025;-71
2023/11/28 07:04:06;;;;;;;17.98;7.85;;;-0.50;99.90;;;;;;5022035;28;20088;-71
2023/11/28 07:06:31;;;;;;;20.50;8.13;;;-0.50;99.90;;;;;;5035229;28;20025;-71
2023/11/28 07:08:57;;;;;;;17.55;7.25;;;-0.60;99.90;;;;;;5036965;28;20029;-72
2023/11/28 07:11:23;;;;;;;16.08;6.95;;;-0.60;99.90;;;;;;5035741;28;20535;-72
2023/11/28 07:13:50;;;;;;;17.52;7.70;;;-0.60;99.90;;;;;;5041656;28;20080;-72
2023/11/28 07:16:17;;;;;;;21.52;7.82;;;-0.60;99.90;;;;;;5038738;28;20476;-72
2023/11/28 07:18:44;;;;;;;18.88;8.18;;;-0.60;99.90;;;;;;5033657;28;20037;-71
2023/11/28 07:21:12;;;;;;;18.63;6.88;;;-0.60;99.90;;;;;;5023653;28;20062;-71
2023/11/28 07:23:38;;;;;;;16.52;7.68;;;-0.60;99.90;;;;;;5031252;28;20033;-71
2023/11/28 07:26:04;;;;;;;20.83;7.93;;;-0.60;99.90;;;;;;5028850;28;20028;-71
2023/11/28 07:28:33;;;;;;;17.90;7.88;;;-0.70;99.90;;;;;;5035924;28;20036;-71
2023/11/28 07:30:58;;;;;;;20.90;7.93;;;-0.70;99.90;;;;;;5021833;28;20178;-71
2023/11/28 07:33:25;;;;;;;15.13;6.68;;;-0.70;99.90;;;;;;5045922;28;20029;-71
2023/11/28 07:35:51;;;;;;;22.10;7.75;;;-0.60;99.90;;;;;;5042604;28;20025;-71
2023/11/28 07:38:20;;;;;;;17.02;7.15;;;-0.70;99.90;;;;;;5044708;28;20411;-71
2023/11/28 07:40:46;;;;;;;18.48;7.80;;;-0.70;99.90;;;;;;5038087;28;20025;-71
2023/11/28 07:43:11;;;;;;;16.02;6.95;;;-0.70;99.90;;;;;;5041789;28;20026;-71
2023/11/28 07:45:37;;;;;;;17.83;6.93;;;-0.70;99.90;;;;;;5024616;28;20030;-71
2023/11/28 07:48:05;;;;;;;14.20;6.82;;;-0.70;99.90;;;;;;5024622;28;20028;-71
2023/11/28 07:50:31;;;;;;;12.07;5.45;;;-0.70;99.90;;;;;;5035209;28;20037;-71
2023/11/28 07:52:57;;;;;;;16.38;6.80;;;-0.80;99.90;;;;;;5046146;28;20029;-71
2023/11/28 07:55:22;;;;;;;14.73;5.65;;;-0.80;99.90;;;;;;5042507;28;20029;-71
2023/11/28 07:57:48;;;;;;;15.30;6.32;;;-0.90;99.90;;;;;;5024173;28;20095;-71
2023/11/28 08:00:14;;;;;;;15.73;6.43;;;-0.90;99.90;;;;;;5039279;28;20466;-71
2023/11/28 08:02:43;;;;;;;14.00;5.63;;;-0.90;99.90;;;;;;5020020;28;20414;-71
2023/11/28 08:05:08;;;;;;;12.85;5.18;;;-1.00;99.90;;;;;;5038012;28;20030;-71
2023/11/28 08:07:35;;;;;;;12.57;4.70;;;-0.90;99.90;;;;;;5020130;28;20135;-71
2023/11/28 08:10:01;;;;;;;11.77;4.57;;;-1.00;99.90;;;;;;5033416;28;20017;-71
2023/11/28 08:12:28;;;;;;;11.95;4.60;;;-1.00;99.90;;;;;;5034902;28;20765;-71
2023/11/28 08:14:57;;;;;;;14.65;4.85;;;-1.00;99.90;;;;;;5014017;28;20029;-71
2023/11/28 08:17:23;;;;;;;10.82;4.22;;;-1.00;99.90;;;;;;5013923;28;20647;-70
2023/11/28 08:19:50;;;;;;;11.95;4.85;;;-1.00;99.90;;;;;;5032522;28;20044;-71
2023/11/28 08:22:17;;;;;;;11.18;4.57;;;-1.00;99.90;;;;;;5031993;28;20037;-70
2023/11/28 08:24:43;;;;;;;10.93;4.03;;;-1.00;99.90;;;;;;5031833;28;20028;-70
2023/11/28 08:27:09;;;;;;;10.70;4.38;;;-1.00;99.90;;;;;;5013913;28;20481;-70
2023/11/28 08:29:34;;;;;;;10.88;4.25;;;-1.00;99.90;;;;;;5028748;28;20116;-71
2023/11/28 08:32:00;;;;;;;12.55;4.20;;;-1.00;99.90;;;;;;5008463;28;20056;-70
2023/11/28 08:34:26;;;;;;;11.88;4.32;;;-1.00;99.90;;;;;;5032627;28;20488;-70
2023/11/28 08:36:52;;;;;;;10.63;4.40;;;-0.90;99.90;;;;;;5031575;28;20449;-70
2023/11/28 08:39:19;;;;;;;12.00;5.00;;;-0.90;99.90;;;;;;5013775;28;20556;-70
2023/11/28 08:41:44;;;;;;;12.13;4.80;;;-0.90;99.90;;;;;;5013180;28;20029;-70
2023/11/28 08:44:10;;;;;;;10.43;4.15;;;-0.90;99.90;;;;;;5032362;28;20570;-70
2023/11/28 08:46:37;;;;;;;11.73;4.63;;;-0.90;99.90;;;;;;5031387;28;20025;-70
2023/11/28 08:49:03;;;;;;;11.13;4.25;;;-0.80;99.90;;;;;;5015326;28;20109;-70
2023/11/28 08:51:32;;;;;;;9.73;3.90;;;-0.70;99.90;;;;;;5035356;28;20042;-70
2023/11/28 08:53:57;;;;;;;11.00;4.40;;;-0.60;99.90;;;;;;5034787;28;20039;-70
2023/11/28 08:56:24;;;;;;;11.73;4.22;;;-0.60;99.90;;;;;;5036289;28;20034;-68
2023/11/28 08:58:50;;;;;;;12.38;4.50;;;-0.60;99.90;;;;;;5033576;28;20110;-68
2023/11/28 09:01:18;;;;;;;11.00;4.28;;;-0.50;99.90;;;;;;5031868;28;20087;-68
2023/11/28 09:03:43;;;;;;;10.70;4.07;;;-0.60;99.90;;;;;;5036006;28;20025;-68
2023/11/28 09:06:09;;;;;;;11.77;3.97;;;-0.60;99.90;;;;;;5037184;28;20399;-68
2023/11/28 09:08:35;;;;;;;11.85;4.80;;;-0.50;99.90;;;;;;5033128;28;20104;-68
2023/11/28 09:11:02;;;;;;;9.20;3.92;;;-0.60;99.90;;;;;;5018192;28;20078;-68
2023/11/28 09:13:29;;;;;;;9.30;3.40;;;-0.50;99.90;;;;;;5032081;28;20144;-68
2023/11/28 09:15:59;;;;;;;10.18;4.20;;;-0.60;99.90;;;;;;5036465;28;20033;-68
2023/11/28 09:18:25;;;;;;;9.55;3.85;;;-0.50;99.90;;;;;;5010671;28;20477;-68
2023/11/28 09:20:51;;;;;;;7.93;2.20;;;-0.60;99.90;;;;;;5035262;28;20029;-67
2023/11/28 09:23:19;;;;;;;10.48;3.90;;;-0.50;99.90;;;;;;5033207;28;20431;-68
2023/11/28 09:25:45;;;;;;;11.55;4.63;;;-0.50;99.90;;;;;;5017359;28;20029;-68
2023/11/28 09:28:10;;;;;;;9.75;4.15;;;-0.40;99.90;;;;;;5015051;28;20026;-68
2023/11/28 09:30:36;;;;;;;12.23;5.10;;;-0.40;99.90;;;;;;5031952;28;20111;-67
2023/11/28 09:33:01;;;;;;;11.63;4.32;;;-0.50;99.90;;;;;;5014694;28;20040;-67
2023/11/28 09:35:27;;;;;;;12.73;4.22;;;-0.50;99.90;;;;;;5038828;28;20060;-68
2023/11/28 09:37:53;;;;;;;11.80;4.63;;;-0.50;99.90;;;;;;5031746;28;20484;-68
2023/11/28 09:40:19;;;;;;;10.52;3.67;;;-0.50;99.90;;;;;;5018074;28;20040;-68
2023/11/28 09:42:49;;;;;;;10.70;4.00;;;-0.50;99.90;;;;;;5014273;28;20029;-67
2023/11/28 09:45:18;;;;;;;8.88;3.42;;;-0.40;99.90;;;;;;5035738;28;20021;-67
2023/11/28 09:47:45;;;;;;;11.55;3.80;;;-0.40;99.90;;;;;;5033241;28;20163;-67
2023/11/28 09:50:14;;;;;;;8.80;3.10;;;-0.40;99.90;;;;;;5034841;28;20034;-67
2023/11/28 09:52:42;;;;;;;11.02;3.67;;;-0.30;99.90;;;;;;5014282;28;20033;-67
2023/11/28 09:55:09;;;;;;;11.30;4.25;;;-0.20;99.90;;;;;;5014303;28;20341;-67
2023/11/28 09:57:39;;;;;;;10.05;4.10;;;-0.20;99.90;;;;;;5033351;28;20066;-67
2023/11/28 10:00:10;;;;;;;11.50;3.78;;;-0.10;99.90;;;;;;5029623;28;20255;-68
2023/11/28 10:02:36;;;;;;;9.43;3.70;;;0.10;99.90;;;;;;5032162;28;20037;-68
2023/11/28 10:05:03;;;;;;;8.40;3.17;;;0.30;99.90;;;;;;5015196;28;20040;-67
2023/11/28 10:07:35;;;;;;;8.80;3.63;;;0.50;99.90;;;;;;5027872;28;20021;-67
2023/11/28 10:10:06;;;;;;;8.95;3.72;;;0.60;99.90;;;;;;5027353;28;20095;-67
2023/11/28 10:12:32;;;;;;;9.35;3.50;;;0.60;99.90;;;;;;5034180;28;20456;-67
2023/11/28 10:15:03;;;;;;;9.23;3.95;;;0.50;99.90;;;;;;5014834;28;20125;-67
2023/11/28 10:17:30;;;;;;;11.50;4.30;;;0.40;99.90;;;;;;5033845;28;20064;-67
2023/11/28 10:19:56;;;;;;;12.32;4.22;;;0.30;99.90;;;;;;5014799;28;20447;-67
2023/11/28 10:22:22;;;;;;;11.10;4.35;;;0.20;99.90;;;;;;5032929;28;20033;-67
2023/11/28 10:24:55;;;;;;;11.70;4.32;;;0.10;99.90;;;;;;5034190;28;20158;-67
2023/11/28 10:27:21;;;;;;;9.55;4.13;;;0.20;99.90;;;;;;5030619;28;20017;-67
2023/11/28 10:29:48;;;;;;;9.82;3.92;;;0.20;99.90;;;;;;5009497;28;20032;-68
2023/11/28 10:32:13;;;;;;;10.45;4.20;;;0.20;99.90;;;;;;5030451;28;20168;-68
2023/11/28 10:34:39;;;;;;;11.25;4.32;;;0.10;99.90;;;;;;5035083;28;20029;-68
2023/11/28 10:37:06;;;;;;;11.43;4.50;;;0.20;99.90;;;;;;5033297;28;20040;-68
2023/11/28 10:39:32;;;;;;;12.32;4.32;;;0.20;99.90;;;;;;5031646;28;20025;-68
2023/11/28 10:41:57;;;;;;;12.43;4.20;;;0.20;99.90;;;;;;5015433;28;20404;-68
2023/11/28 10:44:26;;;;;;;9.40;3.40;;;0.20;99.90;;;;;;5030567;28;20029;-68
2023/11/28 10:46:56;;;;;;;12.93;4.13;;;0.20;99.90;;;;;;5009653;28;20029;-68
2023/11/28 10:49:22;;;;;;;10.45;4.10;;;0.30;99.90;;;;;;5034233;28;20535;-68
2023/11/28 10:51:51;;;;;;;11.18;4.00;;;0.30;99.90;;;;;;5013422;28;20041;-68
2023/11/28 10:54:20;;;;;;;10.98;4.63;;;0.30;99.90;;;;;;5032422;28;20032;-68
2023/11/28 10:56:47;;;;;;;10.02;3.75;;;0.30;99.90;;;;;;5016199;28;20456;-68
2023/11/28 10:59:33;;;;;;;10.10;4.22;;;0.40;99.90;;;;;;5029775;28;20380;-68
2023/11/28 11:02:01;;;;;;;8.85;3.30;;;0.40;99.90;;;;;;5031206;28;20484;-68
2023/11/28 11:04:30;;;;;;;9.75;3.65;;;0.40;99.90;;;;;;5013239;28;20091;-68
2023/11/28 11:06:56;;;;;;;10.05;4.13;;;0.30;99.90;;;;;;5032670;28;20388;-68
2023/11/28 11:09:24;;;;;;;10.60;4.30;;;0.30;99.90;;;;;;5013409;28;20099;-68
2023/11/28 11:12:00;;;;;;;10.90;3.85;;;0.30;99.90;;;;;;5013488;28;20041;-68
2023/11/28 11:14:36;;;;;;;9.38;3.80;;;0.40;99.90;;;;;;5031324;28;20724;-68
2023/11/28 11:17:14;;;;;;;11.23;3.92;;;0.40;99.90;;;;;;5004706;28;20513;-70
2023/11/28 11:19:44;;;;;;;12.93;4.40;;;0.40;99.90;;;;;;5032904;28;20037;-70
2023/11/28 11:22:13;;;;;;;11.63;4.10;;;0.40;99.90;;;;;;5030036;28;20030;-70
2023/11/28 11:24:38;;;;;;;10.98;4.28;;;0.50;99.90;;;;;;5032558;28;20021;-69
2023/11/28 11:27:04;;;;;;;12.95;4.47;;;0.50;99.90;;;;;;5028734;28;20033;-69
2023/11/28 11:29:30;;;;;;;10.88;4.40;;;0.50;99.90;;;;;;5028349;28;20021;-69
2023/11/28 11:31:57;;;;;;;11.05;4.18;;;0.40;99.90;;;;;;5033142;28;20038;-69
2023/11/28 11:34:50;;;;;;;10.20;4.03;;;0.30;99.90;;;;;;5037017;28;20171;-69
2023/11/28 11:37:17;;;;;;;13.27;4.80;;;0.30;99.90;;;;;;5008186;28;20037;-69
2023/11/28 11:39:51;;;;;;;13.43;4.85;;;0.30;99.90;;;;;;5033800;28;20240;-69
2023/11/28 11:42:19;;;;;;;9.27;4.00;;;0.50;99.90;;;;;;5027143;28;20025;-69
2023/11/28 11:44:50;;;;;;;9.10;3.97;;;0.70;99.90;;;;;;5031536;28;20043;-69
2023/11/28 11:47:22;;;;;;;8.18;3.25;;;0.80;99.90;;;;;;5034657;28;20488;-69
2023/11/28 11:49:49;;;;;;;9.48;3.92;;;0.80;99.90;;;;;;5035653;28;20519;-70
2023/11/28 11:52:16;;;;;;;10.35;4.00;;;0.70;99.90;;;;;;5037449;28;20064;-69
2023/11/28 11:54:43;;;;;;;10.38;3.88;;;0.70;99.90;;;;;;5036151;28;20029;-69
2023/11/28 11:57:09;;;;;;;8.43;3.55;;;1.10;99.90;;;;;;5036511;28;20048;-69
2023/11/28 11:59:35;;;;;;;9.55;3.72;;;1.70;99.90;;;;;;5034468;28;20048;-69
2023/11/28 12:02:01;;;;;;;9.82;3.72;;;2.40;99.90;;;;;;5034757;28;20400;-69
2023/11/28 12:04:42;;;;;;;9.43;3.28;;;3.20;99.90;;;;;;5034484;28;20084;-69
2023/11/28 12:07:12;;;;;;;9.07;3.00;;;3.50;99.90;;;;;;5032162;28;20033;-69
2023/11/28 12:09:39;;;;;;;8.90;3.45;;;3.00;99.90;;;;;;5035973;28;20033;-70
2023/11/28 12:12:06;;;;;;;9.05;3.90;;;2.60;99.90;;;;;;5034081;28;20032;-70
2023/11/28 12:14:32;;;;;;;8.95;3.40;;;2.00;99.90;;;;;;5036240;28;20140;-69
2023/11/28 12:17:00;;;;;;;8.05;3.15;;;1.50;99.90;;;;;;5019166;28;20120;-69
2023/11/28 12:19:30;;;;;;;8.77;3.25;;;1.10;99.90;;;;;;5036620;28;20329;-69
2023/11/28 12:21:57;;;;;;;9.43;3.73;;;0.80;99.90;;;;;;5037189;28;20057;-70
2023/11/28 12:24:24;;;;;;;9.38;3.45;;;0.60;99.90;;;;;;5037003;28;20264;-70
2023/11/28 12:26:50;;;;;;;8.70;3.55;;;0.60;99.90;;;;;;5041143;28;20024;-71
2023/11/28 12:29:16;;;;;;;10.43;3.63;;;0.60;99.90;;;;;;5034820;28;20034;-72
2023/11/28 12:31:43;;;;;;;15.90;3.67;;;0.50;99.90;;;;;;5017343;28;20060;-72
2023/11/28 12:34:09;;;;;;;9.75;3.92;;;0.50;99.90;;;;;;5040674;28;20021;-72
2023/11/28 12:36:35;;;;;;;10.07;3.92;;;0.50;99.90;;;;;;5019525;28;20072;-71